This is the latest recevied weather packets stored in our database for station/object WV8BRW. If no packets are shown the sender has not sent any weather packets the latest 10 day(s).
| Time | Temp. | Humidity | Pressure | Rain* | Wind** | Luminosity | Snow |
|---|---|---|---|---|---|---|---|
| 1777819006 | 11.11° C | 55% | 1019.5 hPa | 0 mm | - | 80 W/m² | - |
| 1777818703 | 11.11° C | 55% | 1019.4 hPa | 0 mm | - | 493 W/m² | - |
| 1777818400 | 10.56° C | 58% | 1019.5 hPa | 0 mm | - | 137 W/m² | - |
| 1777818097 | 11.11° C | 55% | 1019.3 hPa | 0 mm | - | 71 W/m² | - |
| 1777817793 | 10.56° C | 59% | 1019.4 hPa | 0 mm | - | 498 W/m² | - |
| 1777817491 | 10.56° C | 64% | 1019.7 hPa | 0 mm | - | 483 W/m² | - |
| 1777817186 | 10° C | 67% | 1019.5 hPa | 0 mm | - | 440 W/m² | - |
| 1777816885 | 9.44° C | 65% | 1019.6 hPa | 0 mm | - | 113 W/m² | - |
| 1777816581 | 9.44° C | 67% | 1019.5 hPa | 0 mm | - | 448 W/m² | - |
| 1777816278 | 9.44° C | 69% | 1019.4 hPa | 0 mm | - | 426 W/m² | - |
| 1777815976 | 8.89° C | 72% | 1019.6 hPa | 0 mm | - | 416 W/m² | - |
| 1777815673 | 8.89° C | 71% | 1019.8 hPa | 0 mm | - | 396 W/m² | - |
| 1777815370 | 8.33° C | 72% | 1019.6 hPa | 0 mm | - | 289 W/m² | - |
| 1777815067 | 8.33° C | 73% | 1019.8 hPa | 0 mm | - | 389 W/m² | - |
| 1777814763 | 7.78° C | 78% | 1019.7 hPa | 0 mm | - | 375 W/m² | - |
| 1777814460 | 7.22° C | 78% | 1019.7 hPa | 0 mm | - | 361 W/m² | - |
| 1777814157 | 7.22° C | 78% | 1019.5 hPa | 0 mm | - | 333 W/m² | - |
| 1777813854 | 6.67° C | 82% | 1019.6 hPa | 0 mm | - | 329 W/m² | - |
| 1777813551 | 6.11° C | 82% | 1019.7 hPa | 0 mm | - | 321 W/m² | - |
| 1777813249 | 5.56° C | 86% | 1019.6 hPa | 0 mm | - | 299 W/m² | - |
| 1777812946 | 4.44° C | 90% | 1019.8 hPa | 0 mm | - | 285 W/m² | - |
| 1777812644 | 3.89° C | 94% | 1019.7 hPa | 0 mm | - | 254 W/m² | - |
| 1777812340 | 3.33° C | 97% | 1019.7 hPa | 0 mm | - | 172 W/m² | - |
| 1777812039 | 2.78° C | 99% | 1019.6 hPa | 0 mm | - | 49 W/m² | - |
| 1777811737 | 2.78° C | 99% | 1019.6 hPa | 0 mm | - | 219 W/m² | - |
* Rain latest hour (hover to see other rain measurements)
** Current wind speed in m/s (hover to see current wind gust speed)